Time;durP1;ratioP1;P1;durP2;ratioP2;P2;SDS_P1;SDS_P2;PMS_P1;PMS_P2;Temp;Humidity;BMP_temperature;BMP_pressure;BME280_temperature;BME280_humidity;BME280_pressure;Samples;Min_cycle;Max_cycle;Signal;HPM_P1;HPM_P2
2022/07/09 00:01:02;;;;;;;4.10;1.80;;;22.20;91.40;;;;;;5095360;28;20075;-73
2022/07/09 00:03:29;;;;;;;7.10;1.95;;;22.20;91.60;;;;;;5092643;28;20031;-74
2022/07/09 00:05:55;;;;;;;2.60;1.38;;;22.00;92.00;;;;;;5093303;28;20028;-73
2022/07/09 00:08:21;;;;;;;2.08;1.08;;;22.00;92.10;;;;;;5085213;28;20522;-73
2022/07/09 00:10:47;;;;;;;5.35;1.60;;;21.90;92.50;;;;;;5082248;28;20021;-74
2022/07/09 00:13:13;;;;;;;3.42;1.50;;;21.80;92.70;;;;;;5086556;28;20031;-74
2022/07/09 00:15:38;;;;;;;4.70;1.52;;;21.70;93.00;;;;;;5091083;28;20025;-74
2022/07/09 00:18:04;;;;;;;2.78;1.27;;;21.70;93.30;;;;;;5089276;28;20032;-74
2022/07/09 00:20:30;;;;;;;6.00;1.52;;;21.60;93.60;;;;;;5087441;28;20582;-73
2022/07/09 00:22:56;;;;;;;3.42;1.30;;;21.50;93.80;;;;;;5091123;28;20070;-74
2022/07/09 00:25:22;;;;;;;3.67;1.50;;;21.40;94.30;;;;;;5091440;28;20020;-73
2022/07/09 00:27:47;;;;;;;5.82;1.92;;;21.30;94.50;;;;;;5093102;28;20099;-73
2022/07/09 00:30:13;;;;;;;2.83;1.50;;;21.30;94.60;;;;;;5095202;28;20080;-73
2022/07/09 00:32:39;;;;;;;3.80;1.63;;;21.10;94.50;;;;;;5095521;28;20028;-73
2022/07/09 00:35:06;;;;;;;4.53;1.77;;;21.10;95.00;;;;;;5085260;28;20048;-73
2022/07/09 00:37:31;;;;;;;4.40;1.92;;;21.00;95.10;;;;;;5079699;28;20027;-73
2022/07/09 00:39:57;;;;;;;4.90;1.52;;;21.00;95.50;;;;;;5079930;28;20025;-73
2022/07/09 00:42:24;;;;;;;3.38;1.98;;;20.80;95.80;;;;;;5083337;28;20052;-74
2022/07/09 00:44:51;;;;;;;8.50;1.92;;;20.80;95.70;;;;;;5080062;28;20495;-74
2022/07/09 00:47:17;;;;;;;5.20;1.77;;;20.70;96.10;;;;;;5086373;28;20020;-74
2022/07/09 00:49:43;;;;;;;3.55;1.60;;;20.60;96.50;;;;;;5083326;28;20025;-73
2022/07/09 00:52:14;;;;;;;2.47;1.73;;;20.60;96.80;;;;;;5087103;28;20052;-73
2022/07/09 00:54:42;;;;;;;5.68;1.52;;;20.50;96.60;;;;;;5085791;28;20437;-73
2022/07/09 00:57:09;;;;;;;2.13;1.50;;;20.50;97.30;;;;;;5094864;28;20032;-74
2022/07/09 00:59:36;;;;;;;2.53;1.40;;;20.40;97.00;;;;;;5094158;28;20019;-73
2022/07/09 01:02:03;;;;;;;3.85;2.00;;;20.40;97.50;;;;;;5091449;28;20039;-74
2022/07/09 01:04:29;;;;;;;5.10;1.92;;;20.40;97.50;;;;;;5093505;28;20032;-73
2022/07/09 01:06:55;;;;;;;5.55;1.80;;;20.30;97.60;;;;;;5085806;28;20024;-73
2022/07/09 01:09:21;;;;;;;6.43;2.15;;;20.30;98.10;;;;;;5081837;28;20020;-73
2022/07/09 01:11:47;;;;;;;2.72;1.50;;;20.30;98.10;;;;;;5088883;28;20024;-73
2022/07/09 01:14:13;;;;;;;4.63;1.75;;;20.30;97.60;;;;;;5090250;28;20020;-74
2022/07/09 01:16:39;;;;;;;6.80;1.83;;;20.20;98.00;;;;;;5090967;28;20031;-73
2022/07/09 01:19:06;;;;;;;3.17;1.63;;;20.20;98.30;;;;;;5088450;28;20025;-73
2022/07/09 01:21:32;;;;;;;2.72;1.75;;;20.20;97.90;;;;;;5092767;28;20019;-73
2022/07/09 01:23:58;;;;;;;3.17;1.52;;;20.10;98.40;;;;;;5092157;28;20404;-74
2022/07/09 01:26:25;;;;;;;2.65;1.55;;;20.10;98.70;;;;;;5093372;28;20043;-73
2022/07/09 01:28:51;;;;;;;3.42;1.67;;;20.00;98.90;;;;;;5094432;28;20032;-73
2022/07/09 01:31:17;;;;;;;3.53;1.38;;;20.00;99.00;;;;;;5094353;28;20020;-73
2022/07/09 01:33:44;;;;;;;3.08;1.38;;;19.90;98.80;;;;;;5092246;28;20024;-73
2022/07/09 01:36:10;;;;;;;4.15;1.80;;;19.90;99.20;;;;;;5095828;28;20088;-73
2022/07/09 01:38:37;;;;;;;12.55;2.50;;;19.90;99.00;;;;;;5096334;28;20024;-73
2022/07/09 01:41:03;;;;;;;5.13;1.88;;;19.90;99.20;;;;;;5090472;28;20020;-73
2022/07/09 01:43:30;;;;;;;2.67;1.60;;;19.90;99.10;;;;;;5085029;28;20020;-73
2022/07/09 01:45:56;;;;;;;4.60;2.00;;;19.80;99.50;;;;;;5092447;28;20498;-73
2022/07/09 01:48:22;;;;;;;3.35;1.60;;;19.80;99.80;;;;;;5092161;28;20084;-74
2022/07/09 01:50:48;;;;;;;3.30;1.70;;;19.70;99.90;;;;;;5093236;28;20516;-73
2022/07/09 01:53:14;;;;;;;3.15;1.73;;;19.60;99.90;;;;;;5094404;28;20040;-73
2022/07/09 01:55:40;;;;;;;2.28;1.70;;;19.60;99.90;;;;;;5097050;28;20039;-73
2022/07/09 01:58:06;;;;;;;4.13;1.80;;;19.50;99.90;;;;;;5083372;28;20025;-74
2022/07/09 02:00:32;;;;;;;5.07;1.70;;;19.40;99.90;;;;;;5077203;28;20025;-74
2022/07/09 02:02:57;;;;;;;4.45;1.63;;;19.40;99.90;;;;;;5078668;28;20035;-73
2022/07/09 02:05:23;;;;;;;5.18;1.70;;;19.40;99.90;;;;;;5092439;28;20059;-74
2022/07/09 02:07:49;;;;;;;5.88;2.22;;;19.40;99.90;;;;;;5082941;28;20024;-74
2022/07/09 02:10:15;;;;;;;4.70;1.90;;;19.40;99.90;;;;;;5085732;28;20024;-74
2022/07/09 02:12:42;;;;;;;2.58;1.73;;;19.30;99.90;;;;;;5084556;28;20016;-73
2022/07/09 02:15:10;;;;;;;3.67;1.90;;;19.20;99.90;;;;;;5088942;28;20023;-73
2022/07/09 02:17:36;;;;;;;5.05;1.90;;;19.20;99.90;;;;;;5086104;28;20036;-73
2022/07/09 02:20:03;;;;;;;5.85;1.90;;;19.10;99.90;;;;;;5092466;28;20485;-73
2022/07/09 02:22:28;;;;;;;3.25;1.80;;;19.00;99.90;;;;;;5092796;28;20070;-73
2022/07/09 02:24:54;;;;;;;3.45;2.00;;;19.00;99.90;;;;;;5095653;28;20032;-74
2022/07/09 02:27:20;;;;;;;5.25;2.00;;;18.90;99.90;;;;;;5099610;28;20530;-74
2022/07/09 02:29:46;;;;;;;3.70;2.35;;;18.90;99.90;;;;;;5098848;28;20012;-73
2022/07/09 02:32:12;;;;;;;2.70;1.85;;;18.80;99.90;;;;;;5088146;28;20484;-73
2022/07/09 02:34:38;;;;;;;1.77;1.50;;;18.80;99.90;;;;;;5093373;28;20031;-73
2022/07/09 02:37:05;;;;;;;5.20;2.08;;;18.80;99.90;;;;;;5096526;28;20031;-73
2022/07/09 02:39:31;;;;;;;3.38;2.20;;;18.70;99.90;;;;;;5099536;28;20024;-71
2022/07/09 02:41:57;;;;;;;2.78;1.90;;;18.70;99.90;;;;;;5099795;28;20038;-72
2022/07/09 02:44:23;;;;;;;7.18;2.35;;;18.70;99.90;;;;;;5093350;28;20060;-72
2022/07/09 02:46:48;;;;;;;3.20;2.42;;;18.70;99.90;;;;;;5082968;28;20020;-72
2022/07/09 02:49:14;;;;;;;3.17;2.10;;;18.80;99.90;;;;;;5084053;28;20020;-72
2022/07/09 02:51:40;;;;;;;4.10;1.90;;;18.70;99.90;;;;;;5083722;28;20128;-72
2022/07/09 02:54:06;;;;;;;8.43;2.22;;;18.70;99.90;;;;;;5086715;28;20019;-71
2022/07/09 02:56:32;;;;;;;4.85;2.55;;;18.70;99.90;;;;;;5092847;28;20016;-72
2022/07/09 02:58:58;;;;;;;4.40;1.98;;;18.70;99.90;;;;;;5098621;28;20115;-72
2022/07/09 03:01:24;;;;;;;2.88;1.98;;;18.60;99.90;;;;;;5093767;28;20056;-72
2022/07/09 03:03:52;;;;;;;4.15;2.58;;;18.60;99.90;;;;;;5098363;28;20048;-72
2022/07/09 03:06:18;;;;;;;6.75;2.05;;;18.60;99.90;;;;;;5091600;28;20024;-72
2022/07/09 03:08:43;;;;;;;3.83;2.67;;;18.50;99.90;;;;;;5091599;28;20020;-72
2022/07/09 03:11:10;;;;;;;6.15;2.72;;;18.50;99.90;;;;;;5089743;28;20027;-72
2022/07/09 03:13:36;;;;;;;6.47;2.28;;;18.50;99.90;;;;;;5099686;28;20020;-72
2022/07/09 03:16:03;;;;;;;5.85;2.10;;;18.50;99.90;;;;;;5092162;28;20025;-72
2022/07/09 03:18:29;;;;;;;3.85;2.75;;;18.50;99.90;;;;;;5097491;28;20024;-72
2022/07/09 03:20:55;;;;;;;3.58;2.30;;;18.40;99.90;;;;;;5096450;28;20039;-72
2022/07/09 03:23:21;;;;;;;3.88;1.98;;;18.40;99.90;;;;;;5097852;28;20032;-72
2022/07/09 03:25:47;;;;;;;3.58;2.50;;;18.40;99.90;;;;;;5084480;28;20024;-72
2022/07/09 03:28:13;;;;;;;5.22;2.20;;;18.30;99.90;;;;;;5099005;28;20026;-72
2022/07/09 03:30:39;;;;;;;6.32;2.47;;;18.30;99.90;;;;;;5095700;28;20020;-71
2022/07/09 03:33:04;;;;;;;3.08;2.25;;;18.30;99.90;;;;;;5094553;28;20020;-72
2022/07/09 03:35:30;;;;;;;5.22;2.75;;;18.30;99.90;;;;;;5095967;28;20511;-72
2022/07/09 03:37:56;;;;;;;7.65;2.83;;;18.20;99.90;;;;;;5086949;28;20078;-72
2022/07/09 03:40:22;;;;;;;5.35;2.50;;;18.20;99.90;;;;;;5085275;28;20090;-72
2022/07/09 03:42:48;;;;;;;9.40;2.80;;;18.20;99.90;;;;;;5090547;28;20024;-71
2022/07/09 03:45:14;;;;;;;4.75;2.40;;;18.20;99.90;;;;;;5093754;28;20024;-72
2022/07/09 03:47:40;;;;;;;5.32;2.75;;;18.20;99.90;;;;;;5094419;28;20469;-72
2022/07/09 03:50:06;;;;;;;8.27;2.50;;;18.10;99.90;;;;;;5089916;28;20043;-72
2022/07/09 03:52:32;;;;;;;5.00;2.33;;;18.00;99.90;;;;;;5096026;28;20047;-72
2022/07/09 03:54:58;;;;;;;4.88;2.35;;;18.00;99.90;;;;;;5094148;28;20020;-72
2022/07/09 03:57:24;;;;;;;3.55;2.08;;;18.00;99.90;;;;;;5097276;28;20031;-71
2022/07/09 03:59:50;;;;;;;3.78;2.25;;;17.90;99.90;;;;;;5096733;28;20024;-72
2022/07/09 04:02:16;;;;;;;3.97;2.47;;;17.90;99.90;;;;;;5091773;28;20025;-72
2022/07/09 04:04:43;;;;;;;5.65;2.15;;;17.90;99.90;;;;;;5083016;28;20020;-72
2022/07/09 04:07:10;;;;;;;5.35;2.60;;;17.90;99.90;;;;;;5081835;28;20437;-71
2022/07/09 04:09:36;;;;;;;3.90;2.90;;;17.80;99.90;;;;;;5085377;28;20040;-71
2022/07/09 04:12:02;;;;;;;4.38;2.55;;;17.80;99.90;;;;;;5086903;28;20087;-72
2022/07/09 04:14:28;;;;;;;6.32;2.47;;;17.70;99.90;;;;;;5085510;28;20031;-72
2022/07/09 04:16:54;;;;;;;4.95;2.15;;;17.60;99.90;;;;;;5090241;28;20031;-72
2022/07/09 04:19:20;;;;;;;3.15;2.35;;;17.60;99.90;;;;;;5088080;28;20047;-72
2022/07/09 04:21:45;;;;;;;5.45;2.60;;;17.60;99.90;;;;;;5094248;28;20050;-72
2022/07/09 04:24:11;;;;;;;3.25;2.20;;;17.60;99.90;;;;;;5091246;28;20025;-71
2022/07/09 04:26:37;;;;;;;4.95;2.65;;;17.60;99.90;;;;;;5096086;28;20081;-72
2022/07/09 04:29:03;;;;;;;4.10;2.33;;;17.60;99.90;;;;;;5095235;28;20481;-73
2022/07/09 04:31:29;;;;;;;3.38;2.30;;;17.50;99.90;;;;;;5097676;28;20024;-72
2022/07/09 04:33:54;;;;;;;3.60;2.35;;;17.60;99.90;;;;;;5082466;28;20031;-73
2022/07/09 04:36:20;;;;;;;3.40;2.50;;;17.60;99.90;;;;;;5091908;28;20024;-72
2022/07/09 04:38:46;;;;;;;3.80;2.60;;;17.60;99.90;;;;;;5082831;28;20589;-72
2022/07/09 04:41:12;;;;;;;5.57;2.30;;;17.60;99.90;;;;;;5082535;28;20389;-72
2022/07/09 04:43:38;;;;;;;4.78;2.30;;;17.70;99.90;;;;;;5084251;28;20035;-72
2022/07/09 04:46:04;;;;;;;5.13;2.35;;;17.70;99.90;;;;;;5086653;28;20030;-74
2022/07/09 04:48:29;;;;;;;7.20;2.30;;;17.70;99.90;;;;;;5086683;28;20099;-72
2022/07/09 04:50:55;;;;;;;5.00;2.40;;;17.70;99.90;;;;;;5091217;28;20028;-72
2022/07/09 04:53:21;;;;;;;3.00;2.25;;;17.70;99.90;;;;;;5086998;28;20488;-72
2022/07/09 04:55:48;;;;;;;4.22;2.85;;;17.80;99.90;;;;;;5092579;28;20028;-72
2022/07/09 04:58:13;;;;;;;6.00;2.95;;;17.90;99.90;;;;;;5091054;28;20024;-72
2022/07/09 05:00:39;;;;;;;3.53;2.60;;;17.90;99.90;;;;;;5095365;28;20028;-72
2022/07/09 05:03:05;;;;;;;5.65;2.90;;;18.00;99.90;;;;;;5093285;28;20028;-72
2022/07/09 05:05:31;;;;;;;6.30;2.67;;;18.00;99.90;;;;;;5097506;28;20051;-72
2022/07/09 05:07:57;;;;;;;5.13;3.20;;;18.00;99.90;;;;;;5082126;28;20411;-72
2022/07/09 05:10:23;;;;;;;4.65;2.38;;;18.10;99.90;;;;;;5079173;28;20026;-74
2022/07/09 05:12:50;;;;;;;5.28;2.20;;;18.10;99.90;;;;;;5081057;28;20071;-72
2022/07/09 05:15:16;;;;;;;5.55;2.45;;;18.10;99.90;;;;;;5095449;28;20016;-72
2022/07/09 05:17:42;;;;;;;7.22;2.92;;;18.20;99.90;;;;;;5087933;28;20103;-72
2022/07/09 05:20:10;;;;;;;6.32;2.30;;;18.20;99.90;;;;;;5084662;28;20488;-72
2022/07/09 05:22:37;;;;;;;4.20;2.50;;;18.20;99.90;;;;;;5084493;28;20493;-72
2022/07/09 05:25:04;;;;;;;14.95;3.03;;;18.20;99.90;;;;;;5087828;28;20058;-72
2022/07/09 05:27:30;;;;;;;4.68;2.53;;;18.20;99.90;;;;;;5088147;28;20021;-72
2022/07/09 05:29:56;;;;;;;6.10;2.72;;;18.30;99.90;;;;;;5092926;28;20027;-72
2022/07/09 05:32:22;;;;;;;6.00;2.95;;;18.30;99.90;;;;;;5092995;28;20124;-72
2022/07/09 05:34:48;;;;;;;3.63;2.50;;;18.40;99.90;;;;;;5085768;28;20028;-72
2022/07/09 05:37:14;;;;;;;4.55;2.90;;;18.40;99.90;;;;;;5090191;28;20036;-73
2022/07/09 05:39:40;;;;;;;4.32;2.80;;;18.40;99.90;;;;;;5092094;28;20028;-73
2022/07/09 05:42:06;;;;;;;6.15;2.85;;;18.50;99.90;;;;;;5092281;28;20392;-72
2022/07/09 05:44:32;;;;;;;3.67;2.45;;;18.60;99.90;;;;;;5091491;28;20024;-73
2022/07/09 05:46:58;;;;;;;6.75;2.88;;;18.60;99.90;;;;;;5084406;28;20035;-72
2022/07/09 05:49:25;;;;;;;10.32;3.03;;;18.70;99.90;;;;;;5078702;28;20104;-72
2022/07/09 05:51:51;;;;;;;5.85;3.17;;;18.60;99.90;;;;;;5079450;28;20067;-72
2022/07/09 05:54:17;;;;;;;4.30;2.75;;;18.70;99.90;;;;;;5090901;28;20017;-73
2022/07/09 05:56:42;;;;;;;8.07;3.20;;;18.70;99.90;;;;;;5087024;28;20028;-72
2022/07/09 05:59:08;;;;;;;6.82;3.17;;;18.80;99.90;;;;;;5091676;28;20028;-72
2022/07/09 06:01:39;;;;;;;5.85;3.00;;;18.90;99.90;;;;;;5089784;28;20254;-73
2022/07/09 06:04:07;;;;;;;10.50;4.05;;;18.90;99.90;;;;;;5094125;28;20103;-73
2022/07/09 06:06:33;;;;;;;5.43;2.78;;;19.00;99.90;;;;;;5092906;28;20377;-74
2022/07/09 06:08:59;;;;;;;4.20;3.13;;;19.00;99.90;;;;;;5096028;28;20016;-73
2022/07/09 06:11:24;;;;;;;6.90;3.33;;;19.00;99.90;;;;;;5093367;28;20438;-70
2022/07/09 06:13:50;;;;;;;6.60;3.40;;;19.10;99.90;;;;;;5085137;28;20044;-70
2022/07/09 06:16:16;;;;;;;7.88;3.20;;;19.10;99.90;;;;;;5096356;28;20446;-71
2022/07/09 06:18:42;;;;;;;8.25;3.55;;;19.20;99.90;;;;;;5096413;28;20020;-71
2022/07/09 06:21:08;;;;;;;5.75;3.80;;;19.30;99.90;;;;;;5093606;28;20035;-70
2022/07/09 06:23:34;;;;;;;6.85;3.08;;;19.30;99.90;;;;;;5089487;28;20020;-70
2022/07/09 06:25:59;;;;;;;4.00;2.67;;;19.40;99.90;;;;;;5092104;28;20034;-71
2022/07/09 06:28:25;;;;;;;7.05;3.25;;;19.40;99.90;;;;;;5081808;28;20031;-71
2022/07/09 06:30:51;;;;;;;8.13;3.50;;;19.40;99.90;;;;;;5086169;28;20062;-71
2022/07/09 06:33:17;;;;;;;9.75;3.42;;;19.50;99.90;;;;;;5077340;28;20073;-70
2022/07/09 06:35:42;;;;;;;10.60;3.55;;;19.50;99.90;;;;;;5092427;28;20456;-71
2022/07/09 06:38:08;;;;;;;8.57;3.92;;;19.60;99.90;;;;;;5095771;28;20073;-71
2022/07/09 06:40:34;;;;;;;5.28;3.45;;;19.70;99.90;;;;;;5078891;28;20027;-71
2022/07/09 06:43:00;;;;;;;4.68;3.15;;;19.70;99.90;;;;;;5075649;28;20503;-72
2022/07/09 06:45:26;;;;;;;7.40;2.67;;;19.80;99.90;;;;;;5079291;28;20400;-71
2022/07/09 06:47:52;;;;;;;5.63;2.83;;;19.80;99.90;;;;;;5093730;28;20622;-71
2022/07/09 06:50:19;;;;;;;7.63;3.72;;;19.90;99.90;;;;;;5093059;28;20150;-70
2022/07/09 06:52:45;;;;;;;6.53;3.35;;;20.00;99.90;;;;;;5093929;28;20077;-70
2022/07/09 06:55:10;;;;;;;7.18;3.53;;;20.10;99.90;;;;;;5095517;28;20062;-71
2022/07/09 06:57:37;;;;;;;6.53;3.05;;;20.20;99.90;;;;;;5095401;28;20031;-71
2022/07/09 07:00:07;;;;;;;5.43;2.90;;;20.30;99.90;;;;;;5092347;28;20059;-71
2022/07/09 07:02:33;;;;;;;7.03;3.03;;;20.40;99.90;;;;;;5095040;28;20031;-71
2022/07/09 07:04:59;;;;;;;4.20;3.17;;;20.40;99.90;;;;;;5096245;28;20044;-72
2022/07/09 07:07:25;;;;;;;6.50;3.15;;;20.40;99.90;;;;;;5085515;28;20439;-72
2022/07/09 07:09:51;;;;;;;5.72;3.08;;;20.40;99.90;;;;;;5095036;28;20016;-72
2022/07/09 07:12:16;;;;;;;9.02;3.20;;;20.40;99.90;;;;;;5082012;28;20016;-72
2022/07/09 07:14:42;;;;;;;7.18;3.60;;;20.40;99.90;;;;;;5086227;28;20039;-72
2022/07/09 07:17:09;;;;;;;4.25;2.70;;;20.50;99.90;;;;;;5099038;28;20040;-72
2022/07/09 07:19:35;;;;;;;6.55;2.90;;;20.60;99.90;;;;;;5090045;28;20038;-72
2022/07/09 07:22:01;;;;;;;10.60;3.13;;;20.70;99.90;;;;;;5088048;28;20021;-71
2022/07/09 07:24:27;;;;;;;7.65;3.05;;;20.80;99.90;;;;;;5090504;28;20024;-71
2022/07/09 07:26:53;;;;;;;13.55;3.03;;;20.90;99.90;;;;;;5092084;28;20016;-71
2022/07/09 07:29:20;;;;;;;9.85;3.67;;;21.00;99.90;;;;;;5092082;28;20380;-71
2022/07/09 07:31:46;;;;;;;5.45;3.20;;;21.10;99.90;;;;;;5091842;28;20028;-71
2022/07/09 07:34:11;;;;;;;5.63;2.75;;;21.30;99.90;;;;;;5099610;28;20023;-71
2022/07/09 07:36:37;;;;;;;3.42;2.70;;;21.40;99.90;;;;;;5093896;28;20031;-73
2022/07/09 07:39:04;;;;;;;8.77;3.22;;;21.60;99.90;;;;;;5092476;28;20091;-73
2022/07/09 07:41:29;;;;;;;7.18;2.53;;;21.80;99.90;;;;;;5092709;28;20549;-73
2022/07/09 07:43:55;;;;;;;6.93;2.78;;;22.00;99.90;;;;;;5087276;28;20107;-73
2022/07/09 07:46:21;;;;;;;6.13;2.40;;;22.20;99.90;;;;;;5079043;28;20512;-74
2022/07/09 07:48:47;;;;;;;5.65;2.70;;;22.20;99.90;;;;;;5089122;28;20423;-74
2022/07/09 07:51:13;;;;;;;6.53;2.60;;;22.20;99.90;;;;;;5098421;28;20040;-73
2022/07/09 07:53:39;;;;;;;6.13;2.38;;;22.20;99.90;;;;;;5093810;28;20541;-73
2022/07/09 07:56:05;;;;;;;4.35;2.53;;;22.30;99.90;;;;;;5098101;28;20456;-74
2022/07/09 07:58:32;;;;;;;5.97;2.85;;;22.30;99.90;;;;;;5096825;28;21455;-74
2022/07/09 08:00:58;;;;;;;9.25;2.90;;;22.30;99.90;;;;;;5088323;28;20392;-74
2022/07/09 08:03:24;;;;;;;5.97;2.20;;;22.50;99.90;;;;;;5081569;28;20057;-74
2022/07/09 08:05:50;;;;;;;8.35;2.65;;;22.50;99.90;;;;;;5088477;28;20032;-73
2022/07/09 08:08:18;;;;;;;5.40;2.22;;;22.60;99.90;;;;;;5083350;28;20031;-73
2022/07/09 08:10:45;;;;;;;5.32;2.65;;;22.80;99.90;;;;;;5079838;28;20017;-74
2022/07/09 08:13:12;;;;;;;5.88;2.60;;;22.80;99.90;;;;;;5083349;28;20024;-74
2022/07/09 08:15:38;;;;;;;7.25;2.80;;;22.80;99.90;;;;;;5082515;28;20027;-74
2022/07/09 08:18:05;;;;;;;5.72;2.60;;;23.00;99.90;;;;;;5087189;28;20503;-74
2022/07/09 08:20:31;;;;;;;5.85;2.35;;;23.10;99.90;;;;;;5084775;28;20103;-73
2022/07/09 08:22:56;;;;;;;10.38;2.25;;;23.20;99.90;;;;;;5089671;28;20112;-74
2022/07/09 08:25:22;;;;;;;5.88;2.45;;;23.20;99.90;;;;;;5087488;28;20021;-74
2022/07/09 08:27:49;;;;;;;4.75;2.25;;;23.40;99.90;;;;;;5089676;28;20484;-74
2022/07/09 08:30:15;;;;;;;6.40;2.00;;;23.50;99.90;;;;;;5092159;28;20050;-75
2022/07/09 08:32:41;;;;;;;7.88;2.20;;;23.40;99.90;;;;;;5092781;28;20481;-74
2022/07/09 08:35:07;;;;;;;3.00;2.00;;;23.40;99.90;;;;;;5096891;28;20088;-75
2022/07/09 08:37:33;;;;;;;5.50;2.35;;;23.50;99.90;;;;;;5095805;28;20028;-74
2022/07/09 08:40:01;;;;;;;6.93;2.50;;;23.60;99.90;;;;;;5097537;28;20045;-75
2022/07/09 08:42:26;;;;;;;5.82;2.10;;;23.70;99.90;;;;;;5083450;28;20020;-74
2022/07/09 08:44:54;;;;;;;6.65;2.22;;;23.90;99.90;;;;;;5079844;28;20035;-75
2022/07/09 08:47:21;;;;;;;5.95;2.70;;;24.00;99.90;;;;;;5093349;28;20073;-74
2022/07/09 08:49:49;;;;;;;4.63;2.13;;;24.00;99.90;;;;;;5093144;28;20476;-75
2022/07/09 08:52:17;;;;;;;5.32;2.15;;;24.10;99.90;;;;;;5091392;28;20492;-74
2022/07/09 08:54:44;;;;;;;8.88;2.75;;;24.00;99.90;;;;;;5082750;28;20023;-74
2022/07/09 08:57:10;;;;;;;3.30;2.30;;;24.10;99.90;;;;;;5093299;28;20025;-75
2022/07/09 08:59:36;;;;;;;5.72;2.30;;;24.10;99.90;;;;;;5083550;28;20049;-74
2022/07/09 09:02:08;;;;;;;5.95;2.10;;;24.10;99.90;;;;;;5091482;28;20028;-74
2022/07/09 09:04:34;;;;;;;3.58;2.03;;;24.20;99.90;;;;;;5094962;28;20500;-75
2022/07/09 09:07:12;;;;;;;3.90;2.08;;;24.40;99.80;;;;;;5096576;28;20020;-74
2022/07/09 09:09:38;;;;;;;6.18;2.17;;;24.40;99.30;;;;;;5094778;28;20020;-75
2022/07/09 09:12:05;;;;;;;9.45;2.38;;;24.60;99.30;;;;;;5078421;28;20068;-74
2022/07/09 09:14:30;;;;;;;10.80;2.08;;;24.60;98.60;;;;;;5078988;28;20048;-74
2022/07/09 09:17:05;;;;;;;8.82;2.00;;;24.80;99.40;;;;;;5088637;28;20021;-74
2022/07/09 09:19:31;;;;;;;6.63;1.88;;;24.90;98.40;;;;;;5088156;28;20019;-74
2022/07/09 09:21:56;;;;;;;10.43;2.58;;;25.00;97.60;;;;;;5092143;28;20017;-74
2022/07/09 09:24:25;;;;;;;7.03;2.10;;;25.00;97.20;;;;;;5085546;28;20016;-74
2022/07/09 09:26:50;;;;;;;5.32;2.10;;;25.20;98.80;;;;;;5088137;28;20016;-75
2022/07/09 09:29:16;;;;;;;3.15;1.83;;;25.50;98.40;;;;;;5095073;28;20017;-74
2022/07/09 09:31:46;;;;;;;3.30;2.00;;;25.70;97.70;;;;;;5086453;28;20028;-74
2022/07/09 09:34:15;;;;;;;5.28;1.80;;;25.80;96.00;;;;;;5086140;28;20468;-74
2022/07/09 09:36:45;;;;;;;5.88;2.00;;;25.90;94.40;;;;;;5088924;28;20396;-74
2022/07/09 09:39:14;;;;;;;6.13;1.73;;;26.00;94.60;;;;;;5081018;28;20024;-75
2022/07/09 09:41:41;;;;;;;6.53;2.45;;;26.20;94.70;;;;;;5095581;28;20028;-74
2022/07/09 09:44:10;;;;;;;8.52;2.20;;;26.20;93.50;;;;;;5095649;28;20080;-74
2022/07/09 09:46:37;;;;;;;3.38;1.77;;;26.20;91.70;;;;;;5094976;28;20034;-75
2022/07/09 09:49:08;;;;;;;5.82;1.77;;;26.10;91.80;;;;;;5079811;28;20017;-75
2022/07/09 09:51:38;;;;;;;;;;;26.10;92.90;;;;;;5078378;28;20049;-74
2022/07/09 09:54:05;;;;;;;5.00;1.80;;;26.10;92.80;;;;;;5085450;28;19991;-74
2022/07/09 09:56:32;;;;;;;4.30;2.00;;;26.20;93.20;;;;;;5095295;28;20404;-74
2022/07/09 09:59:00;;;;;;;4.45;1.70;;;26.20;90.20;;;;;;5094141;28;20024;-74
2022/07/09 10:01:26;;;;;;;8.48;2.03;;;26.30;90.90;;;;;;5094051;28;20573;-74
2022/07/09 10:03:54;;;;;;;6.18;1.92;;;26.50;91.30;;;;;;5078701;28;20459;-73
2022/07/09 10:06:19;;;;;;;3.67;1.60;;;26.40;88.30;;;;;;5080725;28;20050;-73
2022/07/09 10:08:45;;;;;;;7.72;1.70;;;26.60;90.10;;;;;;5080993;28;20484;-76
2022/07/09 10:11:11;;;;;;;7.40;1.90;;;26.60;89.20;;;;;;5084036;28;20020;-74
2022/07/09 10:13:55;;;;;;;5.60;1.58;;;26.60;90.60;;;;;;5090258;28;20050;-74
2022/07/09 10:16:40;;;;;;;5.53;1.95;;;26.60;88.10;;;;;;5082079;28;20025;-72
2022/07/09 10:19:06;;;;;;;5.40;1.90;;;26.80;90.10;;;;;;5073631;28;20341;-71
2022/07/09 10:21:53;;;;;;;8.80;1.60;;;26.80;90.50;;;;;;5078298;28;20028;-74
2022/07/09 10:24:28;;;;;;;2.63;1.45;;;27.00;88.10;;;;;;5079448;28;20472;-73
2022/07/09 10:27:03;;;;;;;4.45;2.00;;;27.30;85.60;;;;;;5087516;28;20028;-72
2022/07/09 10:29:29;;;;;;;7.00;1.60;;;27.30;84.40;;;;;;5084971;28;20021;-73
2022/07/09 10:31:57;;;;;;;5.18;1.85;;;27.50;81.80;;;;;;5084718;28;20028;-71
2022/07/09 10:34:54;;;;;;;5.25;1.40;;;27.50;82.60;;;;;;5091165;28;20016;-75
2022/07/09 10:37:41;;;;;;;2.88;1.40;;;27.50;82.70;;;;;;5092284;28;20023;-73
2022/07/09 10:40:19;;;;;;;3.22;1.60;;;27.50;82.00;;;;;;5082881;28;20056;-73
2022/07/09 10:42:59;;;;;;;6.53;2.30;;;27.40;81.30;;;;;;5095875;28;20024;-72
2022/07/09 10:45:27;;;;;;;5.57;2.03;;;27.60;81.10;;;;;;5090544;28;20066;-73
2022/07/09 10:47:59;;;;;;;12.05;2.13;;;27.60;79.60;;;;;;5084402;28;20025;-72
2022/07/09 10:50:27;;;;;;;4.30;1.55;;;27.70;79.60;;;;;;5091118;28;20067;-72
2022/07/09 10:52:53;;;;;;;5.00;1.73;;;27.70;79.00;;;;;;5088835;28;20053;-73
2022/07/09 10:55:21;;;;;;;3.90;1.65;;;27.80;78.50;;;;;;5091084;28;20058;-72
2022/07/09 10:57:47;;;;;;;7.55;1.48;;;27.90;79.10;;;;;;5094418;28;20028;-72
2022/07/09 11:00:17;;;;;;;4.55;1.80;;;27.90;79.10;;;;;;5098425;28;20031;-72
2022/07/09 11:02:52;;;;;;;;;;;28.00;75.40;;;;;;5094125;28;20028;-72
2022/07/09 11:05:18;;;;;;;3.28;1.52;;;28.20;75.40;;;;;;5086172;28;19912;-72
2022/07/09 11:07:54;;;;;;;6.55;1.83;;;28.20;75.90;;;;;;5099607;28;20015;-72
2022/07/09 11:10:20;;;;;;;3.17;1.98;;;28.30;76.20;;;;;;5096520;28;20424;-72
2022/07/09 11:12:49;;;;;;;6.20;1.45;;;28.40;75.10;;;;;;5093585;28;20040;-72
2022/07/09 11:15:19;;;;;;;10.40;1.92;;;28.50;74.20;;;;;;5097434;28;20514;-73
2022/07/09 11:17:57;;;;;;;4.43;1.33;;;28.40;71.20;;;;;;5087999;28;20024;-72
2022/07/09 11:20:24;;;;;;;2.70;1.50;;;28.40;71.20;;;;;;5087190;28;20040;-73
2022/07/09 11:22:50;;;;;;;5.43;1.27;;;28.40;72.30;;;;;;5089870;28;20024;-74
2022/07/09 11:25:16;;;;;;;3.08;1.27;;;28.40;71.10;;;;;;5090377;28;20027;-72
2022/07/09 11:27:43;;;;;;;8.00;1.42;;;28.40;71.00;;;;;;5090008;28;20042;-72
2022/07/09 11:30:14;;;;;;;3.05;1.20;;;28.50;73.00;;;;;;5093094;28;20035;-72
2022/07/09 11:32:42;;;;;;;5.60;1.70;;;28.50;70.90;;;;;;5098551;28;20035;-72
2022/07/09 11:35:08;;;;;;;5.85;1.77;;;28.60;74.10;;;;;;5095767;28;20089;-73
2022/07/09 11:37:34;;;;;;;7.82;1.42;;;28.70;70.40;;;;;;5091303;28;20031;-73
2022/07/09 11:40:00;;;;;;;4.80;1.10;;;28.70;70.90;;;;;;5090091;28;20024;-72
2022/07/09 11:42:25;;;;;;;6.00;1.63;;;28.70;69.30;;;;;;5081294;28;20408;-72
2022/07/09 11:44:59;;;;;;;3.78;1.20;;;28.80;70.10;;;;;;5079691;28;20035;-73
2022/07/09 11:47:36;;;;;;;4.13;1.50;;;28.80;68.70;;;;;;5086140;28;20029;-72
2022/07/09 11:50:12;;;;;;;4.15;1.85;;;29.00;73.30;;;;;;5089757;28;20028;-72
2022/07/09 11:52:46;;;;;;;2.00;1.00;;;29.20;70.90;;;;;;5084979;28;20076;-73
2022/07/09 11:55:14;;;;;;;2.65;1.25;;;29.30;67.10;;;;;;5087842;28;20028;-72
2022/07/09 11:57:52;;;;;;;5.40;1.20;;;29.20;66.40;;;;;;5089130;28;20020;-72
2022/07/09 12:00:30;;;;;;;4.18;1.27;;;29.30;70.20;;;;;;5090823;28;20068;-73
2022/07/09 12:02:59;;;;;;;5.05;1.25;;;29.20;65.30;;;;;;5088262;28;20028;-72
2022/07/09 12:05:26;;;;;;;3.05;1.30;;;29.10;65.30;;;;;;5098533;28;20043;-72
2022/07/09 12:07:52;;;;;;;4.50;1.35;;;29.20;65.70;;;;;;5093245;28;20027;-72
2022/07/09 12:10:32;;;;;;;4.63;1.63;;;29.20;68.40;;;;;;5098062;28;20017;-72
2022/07/09 12:12:59;;;;;;;4.20;1.45;;;29.40;67.00;;;;;;5094807;28;20538;-72
2022/07/09 12:15:26;;;;;;;2.42;1.23;;;29.60;64.50;;;;;;5086432;28;20020;-72
2022/07/09 12:17:56;;;;;;;3.33;1.40;;;29.50;65.40;;;;;;5084553;28;20020;-72
2022/07/09 12:20:27;;;;;;;3.72;1.17;;;29.80;65.70;;;;;;5081902;28;20028;-72
2022/07/09 12:22:53;;;;;;;3.58;1.23;;;29.90;65.80;;;;;;5085584;28;20024;-72
2022/07/09 12:25:20;;;;;;;6.00;1.20;;;30.00;64.00;;;;;;5082142;28;20025;-72
2022/07/09 12:27:46;;;;;;;5.85;1.48;;;29.80;63.50;;;;;;5087807;28;20020;-72
2022/07/09 12:30:13;;;;;;;2.35;1.33;;;30.00;62.90;;;;;;5085471;28;20020;-72
2022/07/09 12:32:40;;;;;;;2.83;1.27;;;30.00;61.10;;;;;;5091661;28;20030;-72
2022/07/09 12:35:07;;;;;;;2.97;1.13;;;30.00;60.90;;;;;;5089394;28;20032;-73
2022/07/09 12:37:34;;;;;;;3.20;1.20;;;30.00;60.30;;;;;;5093426;28;20043;-73
2022/07/09 12:40:00;;;;;;;5.03;1.85;;;30.00;60.90;;;;;;5095746;28;20024;-72
2022/07/09 12:42:26;;;;;;;3.13;0.90;;;30.10;60.10;;;;;;5095455;28;20480;-73
2022/07/09 12:44:52;;;;;;;3.72;1.20;;;30.20;59.70;;;;;;5085675;28;20028;-73
2022/07/09 12:47:18;;;;;;;5.00;1.88;;;30.20;59.30;;;;;;5078545;28;20016;-72